Carlisle, MA

3:21 AM EST on November 27, 2014 (GMT -0500)
APRSWXNET Carlisle MA US | Change Station
CLOSE
Current Station
Personal Weather Station
Location: Carlisle, MA
Elevation: 199 ft
Nearby Weather Stations

Elev 199 ft 42.53 °N, 71.35 °W | Updated 62 days ago

Snow
Snow
28 °F
Feels Like 21 °F
N
7
Wind Variable Wind from NW
Gusts 11 mph

Today
High -- | Low -- °F
--% Chance of Precip.
Yesterday
High -- | Low -- °F
Precip. -- in
6:51 AM 4:14 PM
Waxing Crescent, 27% visible
Pressure 29.75 in
Visibility 4.0 miles
Clouds Mostly Cloudy 700 ft
Mostly Cloudy 1100 ft
Overcast 2000 ft
Windchill 21 °F
Dew Point 25 °F
Humidity 88%
Rainfall 0.00 in
Snow Depth Not available.
UV 0 out of 12
Pollen .10 out of 12
Air Quality Not available.
Flu Activity Not available.
SPECI KBED 270805Z 31008KT 4SM -SN BR BKN007 BKN011 OVC020 00/M01 A2975 RMK AO2 P0001 T00001006

More Conditions Fewer Conditions

Pressure 29.75 in
Visibility 4.0 miles
Clouds Mostly Cloudy 700 ft
Mostly Cloudy 1100 ft
Overcast 2000 ft
Windchill 21 °F
Dew Point 25 °F
Humidity 88%
Rainfall 0.00 in
Snow Depth Not available.
UV 0 out of 12
Pollen .10 out of 12
Air Quality Not available.
Flu Activity Not available.
SPECI KBED 270805Z 31008KT 4SM -SN BR BKN007 BKN011 OVC020 00/M01 A2975 RMK AO2 P0001 T00001006

More Conditions Fewer Conditions

10-Day Weather Forecast

Almanac

Astronomy

Nov. 27, 2014 Rise Set
Actual Time
Civil Twilight
Nautical Twilight
Astronomical Twilight
Moon
Length of Visible Light
Length of Day
Tomorrow will be .
, % of the Moon is Illuminated

Today's Extremes

State Highs State Lows

Community

WunderPhotos

Upload Photos

1,773,965 photos uploaded!

WunderBlogs® & News

Nearby

Air Quality

  Air Quality AQ Index Pollutant
Not available.

Snow Depth

Station Depth Elevation

Earthquake Activity

City Distance Mag. Time & Date
Minimum magnitude displayed is 2.5.

Coastal Water Temperatures

Place Temperature

Nearby Weather Stations